Time;durP1;ratioP1;P1;durP2;ratioP2;P2;SDS_P1;SDS_P2;PMS_P1;PMS_P2;Temp;Humidity;BMP_temperature;BMP_pressure;BME280_temperature;BME280_humidity;BME280_pressure;Samples;Min_cycle;Max_cycle;Signal;HPM_P1;HPM_P2
2022/12/08 12:23:07;;;;;;;9.73;8.38;;;6.40;99.90;;;;;;5913460;23;20018;-73
2022/12/08 12:25:35;;;;;;;11.13;8.02;;;6.30;99.90;;;;;;4865927;29;20056;-74
2022/12/08 12:28:04;;;;;;;11.18;8.52;;;6.30;99.90;;;;;;4881117;29;20461;-73
2022/12/08 12:30:59;;;;;;;14.50;8.02;;;6.30;99.90;;;;;;4872672;29;20053;-68
2022/12/08 12:33:26;;;;;;;12.25;7.88;;;6.40;99.90;;;;;;4874612;29;20044;-68
2022/12/08 12:35:56;;;;;;;9.80;8.15;;;6.30;99.90;;;;;;4872309;29;20065;-68
2022/12/08 12:41:32;;;;;;;12.57;9.60;;;6.50;99.90;;;;;;4872066;29;20047;-68
2022/12/08 12:44:12;;;;;;;11.45;8.23;;;6.50;99.90;;;;;;4869221;29;20390;-68
2022/12/08 12:46:39;;;;;;;15.38;10.10;;;6.50;99.90;;;;;;4862317;29;20060;-74
2022/12/08 12:51:58;;;;;;;13.85;9.63;;;6.60;99.90;;;;;;4816724;29;20540;-69
2022/12/08 12:54:28;;;;;;;10.80;8.45;;;6.60;99.90;;;;;;4881573;23;20056;-70
2022/12/08 12:57:13;;;;;;;10.93;8.80;;;6.50;99.90;;;;;;4890531;29;20032;-70
2022/12/08 12:59:54;;;;;;;11.82;9.88;;;6.40;99.90;;;;;;4894085;29;20084;-71
2022/12/08 13:02:29;;;;;;;18.55;13.93;;;6.40;99.90;;;;;;4895141;29;20058;-71
2022/12/08 13:04:58;;;;;;;15.73;11.27;;;6.40;99.90;;;;;;4896816;29;20161;-70
2022/12/08 13:07:30;;;;;;;12.85;10.02;;;6.50;99.90;;;;;;4905636;29;20047;-71
2022/12/08 13:10:15;;;;;;;13.45;9.93;;;6.60;99.90;;;;;;4896952;29;20559;-71
2022/12/08 13:12:43;;;;;;;12.02;8.93;;;6.60;99.90;;;;;;4896638;29;20070;-69
2022/12/08 13:15:19;;;;;;;11.07;8.70;;;6.60;99.90;;;;;;4902992;29;20024;-70
2022/12/08 13:17:47;;;;;;;9.95;8.57;;;6.60;99.90;;;;;;4892324;29;20091;-70
2022/12/08 13:20:22;;;;;;;12.50;9.75;;;6.50;99.90;;;;;;4891214;29;20395;-70
2022/12/08 13:23:00;;;;;;;19.63;11.73;;;6.50;99.90;;;;;;4900338;29;20048;-70
2022/12/08 13:25:38;;;;;;;12.35;9.77;;;6.50;99.90;;;;;;4897723;29;20028;-70
2022/12/08 13:28:25;;;;;;;14.75;9.70;;;6.50;99.90;;;;;;4892365;29;20044;-71
2022/12/08 13:30:53;;;;;;;16.45;10.98;;;6.60;99.90;;;;;;4881283;29;20116;-71
2022/12/08 13:33:29;;;;;;;22.75;14.57;;;6.50;99.90;;;;;;4896807;29;20076;-70
2022/12/08 13:36:25;;;;;;;12.15;9.50;;;6.50;99.90;;;;;;4889425;29;20036;-70
2022/12/08 13:38:55;;;;;;;16.08;10.88;;;6.50;99.90;;;;;;4900945;29;20123;-70
2022/12/08 13:41:30;;;;;;;15.57;11.57;;;6.50;99.90;;;;;;4899472;29;20054;-71
2022/12/08 13:44:13;;;;;;;11.60;9.35;;;6.60;99.90;;;;;;4900000;29;20063;-71
2022/12/08 13:46:43;;;;;;;13.95;10.50;;;6.60;99.90;;;;;;4902454;29;20047;-71
2022/12/08 13:49:14;;;;;;;18.90;12.10;;;6.60;99.90;;;;;;4896675;29;20043;-70
2022/12/08 13:51:48;;;;;;;12.10;8.85;;;6.50;99.90;;;;;;4896776;29;20115;-70
2022/12/08 13:54:19;;;;;;;12.18;8.88;;;6.40;99.90;;;;;;4901238;29;20052;-70
2022/12/08 13:56:46;;;;;;;27.13;16.20;;;6.30;99.90;;;;;;4896379;29;20033;-70
2022/12/08 13:59:18;;;;;;;15.10;9.48;;;6.30;99.90;;;;;;4882878;29;20572;-70
2022/12/08 14:01:46;;;;;;;10.70;8.60;;;6.30;99.90;;;;;;4897537;29;20080;-70
2022/12/08 14:04:21;;;;;;;11.25;8.45;;;6.30;99.90;;;;;;4889240;29;20039;-71
2022/12/08 14:06:52;;;;;;;20.50;14.05;;;6.30;99.90;;;;;;4887652;29;20112;-71
2022/12/08 14:09:22;;;;;;;48.70;31.75;;;6.30;99.90;;;;;;4893616;29;20036;-71
2022/12/08 14:11:56;;;;;;;52.95;34.70;;;6.40;99.90;;;;;;4897193;29;24496;-71
2022/12/08 14:14:33;;;;;;;47.42;36.47;;;6.40;99.90;;;;;;4888247;29;20039;-70
2022/12/08 14:17:04;;;;;;;135.70;115.72;;;6.30;99.90;;;;;;4897277;29;20043;-71
2022/12/08 14:19:33;;;;;;;20.80;16.33;;;6.30;99.90;;;;;;4892273;29;20031;-71
2022/12/08 14:22:14;;;;;;;21.38;15.60;;;6.30;99.90;;;;;;4889657;29;20084;-70
2022/12/08 14:24:44;;;;;;;21.67;14.95;;;6.30;99.90;;;;;;4895762;29;20032;-71
2022/12/08 14:27:17;;;;;;;18.80;14.05;;;6.30;99.90;;;;;;4893745;29;20041;-71
2022/12/08 14:29:55;;;;;;;17.02;12.45;;;6.30;99.90;;;;;;4896009;29;20044;-71
2022/12/08 14:32:24;;;;;;;13.27;10.52;;;6.30;99.90;;;;;;4890455;29;20119;-71
2022/12/08 14:35:18;;;;;;;25.70;19.95;;;6.40;99.90;;;;;;4891742;29;20457;-71
2022/12/08 14:37:47;;;;;;;29.65;25.92;;;6.30;99.90;;;;;;4889556;29;20080;-71
2022/12/08 14:40:21;;;;;;;14.23;11.18;;;6.20;99.90;;;;;;4890781;29;20497;-71
2022/12/08 14:42:53;;;;;;;13.05;10.48;;;6.20;99.90;;;;;;4898737;29;20106;-71
2022/12/08 14:45:19;;;;;;;19.65;14.25;;;6.20;99.90;;;;;;4897960;29;20400;-71
2022/12/08 14:47:45;;;;;;;12.00;10.00;;;6.10;99.90;;;;;;4902006;29;20040;-71
2022/12/08 14:50:41;;;;;;;17.02;12.93;;;6.00;99.90;;;;;;4895797;29;20040;-71
2022/12/08 14:53:16;;;;;;;16.98;12.43;;;6.00;99.90;;;;;;4882759;29;20080;-71
2022/12/08 14:55:43;;;;;;;14.38;11.30;;;6.10;99.90;;;;;;4890184;29;20060;-71
2022/12/08 14:58:26;;;;;;;20.00;11.00;;;6.00;99.90;;;;;;4884274;29;20542;-71
2022/12/08 15:00:55;;;;;;;28.25;11.73;;;6.00;99.90;;;;;;4892228;29;20144;-70
2022/12/08 15:03:22;;;;;;;18.35;10.15;;;6.00;99.90;;;;;;4888481;29;20087;-71
2022/12/08 15:06:03;;;;;;;12.38;9.48;;;6.00;99.90;;;;;;4893406;29;20088;-71
2022/12/08 15:08:30;;;;;;;9.25;7.47;;;6.00;99.90;;;;;;4877835;29;20441;-72
2022/12/08 15:11:21;;;;;;;11.07;7.68;;;6.00;99.90;;;;;;4888584;29;20040;-71
2022/12/08 15:13:49;;;;;;;9.15;6.75;;;6.00;99.90;;;;;;4882881;29;20059;-77
2022/12/08 15:16:29;;;;;;;13.10;7.93;;;6.00;99.90;;;;;;4893580;29;20523;-71
2022/12/08 15:19:20;;;;;;;7.10;6.40;;;5.90;99.90;;;;;;4892377;29;20040;-69
2022/12/08 15:21:46;;;;;;;8.95;7.03;;;5.90;99.90;;;;;;4894364;29;20040;-70
2022/12/08 15:24:15;;;;;;;10.63;7.10;;;5.80;99.90;;;;;;4891413;29;20048;-70
2022/12/08 15:26:45;;;;;;;10.23;6.82;;;5.70;99.90;;;;;;4889833;29;20186;-70
2022/12/08 15:29:22;;;;;;;9.38;7.20;;;5.70;99.90;;;;;;4886929;29;20081;-69
2022/12/08 15:31:49;;;;;;;8.32;6.65;;;5.70;99.90;;;;;;4880132;29;20123;-69
2022/12/08 15:34:14;;;;;;;12.93;10.30;;;5.70;99.90;;;;;;4883907;29;20072;-76
2022/12/08 15:36:41;;;;;;;16.33;12.68;;;5.70;99.90;;;;;;4881070;29;20159;-69
2022/12/08 15:39:20;;;;;;;22.67;16.85;;;5.70;99.90;;;;;;4896871;29;20059;-70
2022/12/08 15:41:45;;;;;;;16.83;11.23;;;5.70;99.90;;;;;;4893550;29;20111;-69
2022/12/08 15:44:11;;;;;;;38.22;26.60;;;5.70;99.90;;;;;;4893967;29;20028;-69
2022/12/08 15:46:36;;;;;;;58.30;33.47;;;5.70;99.90;;;;;;4890199;29;20035;-69
2022/12/08 15:49:02;;;;;;;56.03;32.90;;;5.70;99.90;;;;;;4888252;29;20544;-69
2022/12/08 15:51:29;;;;;;;36.67;23.05;;;5.70;99.90;;;;;;4891185;29;20032;-69
2022/12/08 15:53:55;;;;;;;23.50;18.10;;;5.60;99.90;;;;;;4868916;29;20720;-70
2022/12/08 15:56:21;;;;;;;14.38;11.02;;;5.60;99.90;;;;;;4894449;29;20024;-70
2022/12/08 15:58:46;;;;;;;18.75;12.13;;;5.60;99.90;;;;;;4886477;29;20079;-70
2022/12/08 16:01:12;;;;;;;23.45;13.85;;;5.60;99.90;;;;;;4894909;29;20046;-69
2022/12/08 16:03:38;;;;;;;21.13;13.43;;;5.70;99.90;;;;;;4895655;29;20039;-70
2022/12/08 16:06:05;;;;;;;15.02;10.18;;;5.60;99.90;;;;;;4889401;29;20036;-70
2022/12/08 16:08:30;;;;;;;12.38;10.10;;;5.60;99.90;;;;;;4876025;29;20072;-69
2022/12/08 16:13:49;;;;;;;13.27;9.70;;;5.60;99.90;;;;;;4879429;29;20154;-70
2022/12/08 16:13:51;;;;;;;13.55;9.88;;;5.60;99.90;;;;;;4885316;29;20893;-70
2022/12/08 16:16:21;;;;;;;12.18;8.45;;;5.50;99.90;;;;;;4888921;29;20043;-69
2022/12/08 16:18:48;;;;;;;11.15;8.23;;;5.50;99.90;;;;;;4887130;29;20024;-70
2022/12/08 16:21:14;;;;;;;9.98;7.53;;;5.40;99.90;;;;;;4887529;29;20147;-69
2022/12/08 16:23:40;;;;;;;10.13;7.68;;;5.40;99.90;;;;;;4881067;29;20040;-69
2022/12/08 16:26:10;;;;;;;11.55;7.72;;;5.40;99.90;;;;;;4895076;29;20035;-71
2022/12/08 16:28:35;;;;;;;9.00;6.95;;;5.40;99.90;;;;;;4893720;29;20051;-69
2022/12/08 16:31:01;;;;;;;9.10;7.43;;;5.40;99.90;;;;;;4891885;29;20224;-69
2022/12/08 16:33:26;;;;;;;12.23;9.48;;;5.40;99.90;;;;;;4895098;29;20079;-69
2022/12/08 16:35:52;;;;;;;16.63;12.15;;;5.40;99.90;;;;;;4895072;29;20179;-69
2022/12/08 16:38:18;;;;;;;15.75;11.20;;;5.40;99.90;;;;;;4893291;29;20040;-70
2022/12/08 16:43:34;;;;;;;21.40;13.07;;;5.50;99.90;;;;;;4882409;29;21865;-69
2022/12/08 16:46:01;;;;;;;20.77;13.95;;;5.50;99.90;;;;;;4882153;29;20151;-68
2022/12/08 16:48:27;;;;;;;19.98;14.05;;;5.50;99.90;;;;;;4891302;29;20028;-69
2022/12/08 16:50:53;;;;;;;19.15;14.70;;;5.50;99.90;;;;;;4891124;29;20044;-69
2022/12/08 16:53:19;;;;;;;20.08;15.00;;;5.50;99.90;;;;;;4880264;29;20476;-69
2022/12/08 16:55:48;;;;;;;17.00;12.80;;;5.40;99.90;;;;;;4890300;29;20039;-69
2022/12/08 16:58:17;;;;;;;18.13;13.63;;;5.40;99.90;;;;;;4889946;29;20036;-69
2022/12/08 17:00:43;;;;;;;20.52;14.02;;;5.50;99.90;;;;;;4896325;29;20559;-69
2022/12/08 17:03:11;;;;;;;19.52;14.73;;;5.50;99.90;;;;;;4898264;29;20047;-69
2022/12/08 17:05:39;;;;;;;18.02;12.98;;;5.40;99.90;;;;;;4890849;29;20572;-69
2022/12/08 17:08:05;;;;;;;18.02;12.93;;;5.50;99.90;;;;;;4891008;29;20041;-69
2022/12/08 17:10:33;;;;;;;17.33;12.98;;;5.60;99.90;;;;;;4894654;29;20152;-69
2022/12/08 17:13:00;;;;;;;17.88;13.10;;;5.60;99.90;;;;;;4894909;29;20036;-69
2022/12/08 17:15:26;;;;;;;17.20;13.82;;;5.60;99.90;;;;;;4890686;29;20039;-69
2022/12/08 17:17:53;;;;;;;19.20;14.32;;;5.60;99.90;;;;;;4891926;29;20127;-69
2022/12/08 17:20:25;;;;;;;18.65;15.07;;;5.50;99.90;;;;;;4886716;29;20056;-69
2022/12/08 17:22:57;;;;;;;;;;;5.50;99.90;;;;;;4894583;29;20041;-69
2022/12/08 17:25:24;;;;;;;17.02;12.80;;;5.50;99.90;;;;;;4892415;29;20644;-69
2022/12/08 17:27:50;;;;;;;16.90;13.38;;;5.50;99.90;;;;;;4895617;29;20062;-69
2022/12/08 17:30:16;;;;;;;17.38;13.25;;;5.50;99.90;;;;;;4898092;29;20110;-69
2022/12/08 17:32:43;;;;;;;21.52;15.25;;;5.50;99.90;;;;;;4892363;29;20043;-68
2022/12/08 17:35:09;;;;;;;24.33;17.85;;;5.60;99.90;;;;;;4887429;29;21328;-69
2022/12/08 17:37:35;;;;;;;24.60;16.70;;;5.70;99.90;;;;;;4879684;29;20036;-69
2022/12/08 17:40:01;;;;;;;20.38;15.57;;;5.70;99.90;;;;;;4878025;29;20569;-69
2022/12/08 17:42:27;;;;;;;19.73;15.60;;;5.60;99.90;;;;;;4887299;29;20055;-69
2022/12/08 17:44:53;;;;;;;19.88;15.07;;;5.60;99.90;;;;;;4880716;29;20399;-70
2022/12/08 17:47:19;;;;;;;20.83;15.02;;;5.60;99.90;;;;;;4882750;29;20528;-69
2022/12/08 17:49:45;;;;;;;20.67;14.65;;;5.60;99.90;;;;;;4886263;29;20025;-69
2022/12/08 17:52:11;;;;;;;18.83;14.20;;;5.50;99.90;;;;;;4890583;29;20516;-69
2022/12/08 17:54:37;;;;;;;17.67;14.48;;;5.50;99.90;;;;;;4870758;29;20970;-69
2022/12/08 17:57:03;;;;;;;22.70;15.30;;;5.50;99.90;;;;;;4876270;29;20063;-69
2022/12/08 17:59:29;;;;;;;20.73;15.75;;;5.50;99.90;;;;;;4869319;29;20032;-70
2022/12/08 18:01:56;;;;;;;23.10;16.17;;;5.50;99.90;;;;;;4887347;29;20663;-70
2022/12/08 18:04:22;;;;;;;22.20;15.65;;;5.40;99.90;;;;;;4884675;29;20365;-69
2022/12/08 18:06:47;;;;;;;19.85;15.38;;;5.40;99.90;;;;;;4882864;29;20044;-70
2022/12/08 18:09:14;;;;;;;22.27;16.88;;;5.30;99.90;;;;;;4895717;29;20040;-70
2022/12/08 18:11:42;;;;;;;24.05;17.23;;;5.30;99.90;;;;;;4894436;29;20040;-70
2022/12/08 18:14:09;;;;;;;27.45;18.00;;;5.30;99.90;;;;;;4890195;29;20032;-70
2022/12/08 18:16:41;;;;;;;23.30;17.10;;;5.30;99.90;;;;;;4895340;29;20036;-70
2022/12/08 18:19:08;;;;;;;27.48;19.98;;;5.20;99.90;;;;;;4896734;29;20023;-69
2022/12/08 18:21:34;;;;;;;26.77;20.23;;;5.10;99.90;;;;;;4895514;29;20151;-69
2022/12/08 18:24:00;;;;;;;24.65;17.63;;;5.10;99.90;;;;;;4883907;29;20533;-70
2022/12/08 18:26:26;;;;;;;23.83;17.40;;;5.10;99.90;;;;;;4880131;29;20048;-70
2022/12/08 18:28:52;;;;;;;22.52;16.02;;;5.20;99.90;;;;;;4893873;29;20039;-70
2022/12/08 18:31:20;;;;;;;23.52;16.85;;;5.20;99.90;;;;;;4888603;29;20032;-70
2022/12/08 18:33:48;;;;;;;23.67;17.90;;;5.20;99.90;;;;;;4891285;29;20673;-70
2022/12/08 18:36:20;;;;;;;24.77;17.27;;;5.20;99.90;;;;;;4862740;29;20082;-70
2022/12/08 18:38:47;;;;;;;22.88;17.25;;;5.30;99.90;;;;;;4879612;29;20035;-70
2022/12/08 18:41:19;;;;;;;22.15;16.90;;;5.30;99.90;;;;;;4878745;29;20036;-70
2022/12/08 18:43:45;;;;;;;21.27;15.70;;;5.30;99.90;;;;;;4884535;29;20510;-70
2022/12/08 18:46:13;;;;;;;19.55;15.98;;;5.30;99.90;;;;;;4884905;29;20508;-70
2022/12/08 18:48:45;;;;;;;20.73;15.60;;;5.40;99.90;;;;;;4895474;29;20075;-70
2022/12/08 18:51:21;;;;;;;19.58;14.75;;;5.40;99.90;;;;;;4877510;29;20092;-69
2022/12/08 18:53:48;;;;;;;21.23;14.77;;;5.30;99.90;;;;;;4889147;29;20309;-69
2022/12/08 18:56:34;;;;;;;17.50;13.75;;;5.30;99.90;;;;;;4879080;29;20060;-70
2022/12/08 18:59:03;;;;;;;19.38;13.63;;;5.20;99.90;;;;;;4881222;29;20108;-69
2022/12/08 19:01:30;;;;;;;21.75;14.43;;;5.20;99.90;;;;;;4889395;29;20036;-69
2022/12/08 19:03:58;;;;;;;18.08;14.18;;;5.30;99.90;;;;;;4880880;29;20123;-69
2022/12/08 19:06:24;;;;;;;16.83;12.77;;;5.30;99.90;;;;;;4880299;29;20652;-69
2022/12/08 19:08:49;;;;;;;15.25;12.35;;;5.30;99.90;;;;;;4892412;29;20044;-70
2022/12/08 19:11:25;;;;;;;17.58;13.07;;;5.30;99.90;;;;;;4893732;29;20610;-70
2022/12/08 19:13:53;;;;;;;18.42;14.02;;;5.30;99.90;;;;;;4894047;29;20032;-69
2022/12/08 19:16:19;;;;;;;17.80;13.45;;;5.30;99.90;;;;;;4887198;29;20037;-69
2022/12/08 19:18:46;;;;;;;17.23;13.40;;;5.30;99.90;;;;;;4895229;29;20038;-69
2022/12/08 19:21:12;;;;;;;17.95;13.32;;;5.20;99.90;;;;;;4886721;29;20032;-69
2022/12/08 19:23:39;;;;;;;19.35;13.52;;;5.20;99.90;;;;;;4881455;29;20489;-69
2022/12/08 19:26:06;;;;;;;19.02;13.02;;;5.30;99.90;;;;;;4885665;29;20047;-69
2022/12/08 19:28:34;;;;;;;21.10;13.52;;;5.30;99.90;;;;;;4892698;29;20169;-70
2022/12/08 19:31:07;;;;;;;18.92;14.52;;;5.20;99.90;;;;;;4888580;29;20035;-70
2022/12/08 19:33:34;;;;;;;23.08;19.13;;;5.30;99.90;;;;;;4883645;29;20502;-70
2022/12/08 19:36:13;;;;;;;19.58;15.25;;;5.30;99.90;;;;;;4886892;29;20075;-69
2022/12/08 19:46:57;;;;;;;18.15;14.18;;;5.20;99.90;;;;;;4898496;29;20059;-70
2022/12/08 19:49:23;;;;;;;18.92;14.90;;;5.20;99.90;;;;;;4899052;29;20890;-70
2022/12/08 19:51:49;;;;;;;17.90;15.02;;;5.10;99.90;;;;;;4900149;29;20036;-70
2022/12/08 19:54:16;;;;;;;19.13;14.90;;;5.00;99.90;;;;;;4898890;29;20044;-70
2022/12/08 19:56:43;;;;;;;18.42;14.25;;;5.10;99.90;;;;;;4893033;29;20044;-70
2022/12/08 19:59:09;;;;;;;21.73;14.82;;;5.10;99.90;;;;;;4877955;29;20028;-70
2022/12/08 20:01:37;;;;;;;18.88;13.65;;;5.20;99.90;;;;;;4889193;29;20043;-70
2022/12/08 20:04:03;;;;;;;20.15;13.98;;;5.20;99.90;;;;;;4893223;29;20115;-70
2022/12/08 20:06:30;;;;;;;18.65;14.07;;;5.20;99.90;;;;;;4885724;29;20024;-70
2022/12/08 20:08:56;;;;;;;19.15;14.43;;;5.20;99.90;;;;;;4889606;29;20051;-70
2022/12/08 20:11:22;;;;;;;20.35;14.30;;;5.20;99.90;;;;;;4884460;29;20592;-70
2022/12/08 20:13:48;;;;;;;20.95;14.68;;;5.30;99.90;;;;;;4887351;29;20031;-70
2022/12/08 20:16:15;;;;;;;28.08;16.55;;;5.30;99.90;;;;;;4894141;29;20059;-70
2022/12/08 20:18:41;;;;;;;24.65;16.10;;;5.30;99.90;;;;;;4891655;29;20063;-70
2022/12/08 20:21:09;;;;;;;20.55;15.55;;;5.30;99.90;;;;;;4890216;29;20036;-70
2022/12/08 20:23:36;;;;;;;20.60;14.90;;;5.30;99.90;;;;;;4894624;29;20036;-70
2022/12/08 20:26:07;;;;;;;20.45;15.00;;;5.30;99.90;;;;;;4882573;29;20111;-69
2022/12/08 20:28:35;;;;;;;20.05;14.60;;;5.30;99.90;;;;;;4881268;29;20111;-70
2022/12/08 20:31:01;;;;;;;20.80;14.82;;;5.20;99.90;;;;;;4883583;29;20032;-70
2022/12/08 20:33:27;;;;;;;21.23;15.98;;;5.10;99.90;;;;;;4891809;29;20028;-70
2022/12/08 20:36:01;;;;;;;20.83;14.35;;;5.10;99.90;;;;;;4891815;29;20066;-70
2022/12/08 20:38:27;;;;;;;19.98;14.90;;;5.20;99.90;;;;;;4897534;29;20051;-70
2022/12/08 20:40:53;;;;;;;21.63;14.80;;;5.20;99.90;;;;;;4890512;29;20044;-70
2022/12/08 20:43:19;;;;;;;19.73;14.88;;;5.20;99.90;;;;;;4893391;29;20036;-70
2022/12/08 20:45:46;;;;;;;20.40;14.85;;;5.30;99.90;;;;;;4891551;29;20107;-70
2022/12/08 20:48:11;;;;;;;19.13;15.10;;;5.30;99.90;;;;;;4896330;29;20017;-70
2022/12/08 20:50:37;;;;;;;19.40;14.48;;;5.20;99.90;;;;;;4892082;29;20474;-71
2022/12/08 20:53:04;;;;;;;19.25;14.60;;;5.20;99.90;;;;;;4886056;29;20678;-71
2022/12/08 20:55:29;;;;;;;21.17;14.05;;;5.20;99.90;;;;;;4886130;29;20043;-70
2022/12/08 20:57:55;;;;;;;20.08;15.00;;;5.20;99.90;;;;;;4887264;29;20040;-70
2022/12/08 21:00:24;;;;;;;21.90;14.73;;;5.20;99.90;;;;;;4889097;29;20043;-70
2022/12/08 21:02:51;;;;;;;22.02;16.00;;;5.10;99.90;;;;;;4870706;29;20033;-71
2022/12/08 21:05:17;;;;;;;21.52;15.48;;;5.10;99.90;;;;;;4881853;29;20036;-72
2022/12/08 21:07:43;;;;;;;22.38;16.00;;;5.20;99.90;;;;;;4892696;29;20492;-71
2022/12/08 21:10:10;;;;;;;22.75;15.40;;;5.20;99.90;;;;;;4893301;29;20028;-71
2022/12/08 21:12:36;;;;;;;19.63;14.95;;;5.20;99.90;;;;;;4882444;29;20048;-71
2022/12/08 21:15:02;;;;;;;20.65;15.90;;;5.20;99.90;;;;;;4875074;29;20056;-71
2022/12/08 21:17:28;;;;;;;20.25;14.88;;;5.20;99.90;;;;;;4878606;29;20187;-71
2022/12/08 21:19:53;;;;;;;24.77;15.93;;;5.20;99.90;;;;;;4886997;29;20032;-72
2022/12/08 21:22:19;;;;;;;24.52;16.48;;;5.30;99.90;;;;;;4890757;29;20044;-71
2022/12/08 21:24:45;;;;;;;26.73;17.90;;;5.30;99.90;;;;;;4887302;29;20053;-71
2022/12/08 21:27:11;;;;;;;28.02;17.98;;;5.30;99.90;;;;;;4887394;29;20114;-71
2022/12/08 21:29:37;;;;;;;24.52;15.98;;;5.30;99.90;;;;;;4878354;29;20036;-71
2022/12/08 21:32:03;;;;;;;26.73;17.25;;;5.30;99.90;;;;;;4889321;29;20528;-71
2022/12/08 21:34:32;;;;;;;23.02;16.88;;;5.30;99.90;;;;;;4888087;29;20448;-71
2022/12/08 21:36:59;;;;;;;27.40;17.25;;;5.30;99.90;;;;;;4893193;29;20028;-71
2022/12/08 21:39:24;;;;;;;26.10;18.20;;;5.30;99.90;;;;;;4892082;29;20039;-71
2022/12/08 21:44:35;;;;;;;33.55;20.05;;;5.30;99.90;;;;;;4886583;29;20569;-71
2022/12/08 21:47:01;;;;;;;27.00;17.88;;;5.30;99.90;;;;;;4866800;29;20028;-71
2022/12/08 21:49:26;;;;;;;25.70;17.70;;;5.30;99.90;;;;;;4890389;29;20576;-71
2022/12/08 21:51:52;;;;;;;25.50;17.30;;;5.20;99.90;;;;;;4889520;29;20119;-71
2022/12/08 21:54:18;;;;;;;22.40;15.38;;;5.30;99.90;;;;;;4890438;29;20344;-70
2022/12/08 21:56:45;;;;;;;22.48;16.20;;;5.40;99.90;;;;;;4891434;29;20171;-70
2022/12/08 21:59:10;;;;;;;22.85;16.42;;;5.30;99.90;;;;;;4889773;29;20027;-71
2022/12/08 22:01:36;;;;;;;22.98;17.42;;;5.30;99.90;;;;;;4892521;29;20143;-71
2022/12/08 22:04:01;;;;;;;22.10;16.67;;;5.30;99.90;;;;;;4889486;29;20024;-71
2022/12/08 22:06:27;;;;;;;22.95;16.02;;;5.30;99.90;;;;;;4883782;29;20028;-71
2022/12/08 22:08:56;;;;;;;23.80;16.85;;;5.30;99.90;;;;;;4885784;29;20047;-71
2022/12/08 22:11:22;;;;;;;21.25;16.00;;;5.20;99.90;;;;;;4884996;29;20060;-70
2022/12/08 22:13:48;;;;;;;21.95;16.05;;;5.10;99.90;;;;;;4874630;29;20116;-70
2022/12/08 22:16:14;;;;;;;26.88;16.27;;;5.10;99.90;;;;;;4891295;29;20893;-70
2022/12/08 22:18:41;;;;;;;19.50;14.38;;;5.00;99.90;;;;;;4882188;29;21003;-70
2022/12/08 22:21:14;;;;;;;20.05;13.57;;;5.00;99.90;;;;;;4880228;29;20111;-70
2022/12/08 22:23:40;;;;;;;17.40;14.02;;;5.00;99.90;;;;;;4890136;29;20036;-70
2022/12/08 22:26:06;;;;;;;16.42;12.68;;;5.00;99.90;;;;;;4877687;29;20643;-70
2022/12/08 22:28:35;;;;;;;18.58;13.27;;;5.10;99.90;;;;;;4892877;29;20040;-70
2022/12/08 22:31:16;;;;;;;16.77;11.98;;;5.10;99.90;;;;;;4886974;29;20036;-70
2022/12/08 22:33:43;;;;;;;17.95;12.68;;;5.00;99.90;;;;;;4891225;29;20389;-70
2022/12/08 22:36:17;;;;;;;17.17;13.27;;;5.10;99.90;;;;;;4890951;29;20028;-71
2022/12/08 22:38:43;;;;;;;19.83;13.82;;;5.10;99.90;;;;;;4887606;29;20036;-69
2022/12/08 22:41:09;;;;;;;17.90;13.63;;;5.10;99.90;;;;;;4879249;29;20087;-71
2022/12/08 22:43:36;;;;;;;19.33;14.23;;;5.10;99.90;;;;;;4886992;29;20036;-72
2022/12/08 22:46:06;;;;;;;17.38;13.35;;;5.10;99.90;;;;;;4884643;29;20439;-71
2022/12/08 22:48:32;;;;;;;18.17;13.40;;;5.00;99.90;;;;;;4887477;29;20033;-71
2022/12/08 22:51:01;;;;;;;17.63;12.93;;;5.00;99.90;;;;;;4895486;29;20032;-69
2022/12/08 22:53:27;;;;;;;17.40;13.05;;;5.00;99.90;;;;;;4883604;29;20052;-71
2022/12/08 22:55:53;;;;;;;16.70;13.05;;;5.10;99.90;;;;;;4886688;29;20063;-71
2022/12/08 22:58:19;;;;;;;19.77;13.48;;;5.10;99.90;;;;;;4887457;29;20493;-71
2022/12/08 23:00:45;;;;;;;16.15;12.80;;;5.10;99.90;;;;;;4883471;29;20179;-70
2022/12/08 23:03:10;;;;;;;18.98;14.35;;;5.10;99.90;;;;;;4881351;29;20041;-69
2022/12/08 23:05:38;;;;;;;17.30;13.75;;;5.10;99.90;;;;;;4887389;29;20116;-70
2022/12/08 23:08:05;;;;;;;17.38;13.48;;;5.00;99.90;;;;;;4883021;29;20040;-70
2022/12/08 23:10:32;;;;;;;19.02;13.48;;;5.00;99.90;;;;;;4884120;29;20077;-70
2022/12/08 23:12:58;;;;;;;16.50;12.93;;;4.90;99.90;;;;;;4883639;29;20068;-70
2022/12/08 23:15:23;;;;;;;17.90;13.70;;;5.00;99.90;;;;;;4884318;29;20139;-70
2022/12/08 23:17:49;;;;;;;14.55;11.55;;;5.10;99.90;;;;;;4877518;29;20044;-70
2022/12/08 23:20:15;;;;;;;16.98;13.80;;;5.20;99.90;;;;;;4873698;29;20111;-69
2022/12/08 23:22:41;;;;;;;17.35;13.52;;;5.20;99.90;;;;;;4885973;29;20532;-71
2022/12/08 23:25:07;;;;;;;17.48;13.48;;;5.20;99.90;;;;;;4892800;29;20033;-71
2022/12/08 23:27:33;;;;;;;19.85;15.20;;;5.20;99.90;;;;;;4865733;29;20047;-73
2022/12/08 23:29:58;;;;;;;35.97;23.90;;;5.20;99.90;;;;;;4889094;29;20032;-73
2022/12/08 23:32:24;;;;;;;78.70;40.25;;;5.20;99.90;;;;;;4887039;29;20032;-72
2022/12/08 23:34:50;;;;;;;29.52;19.92;;;5.30;99.90;;;;;;4887714;29;20929;-73
2022/12/08 23:37:15;;;;;;;22.60;16.30;;;5.30;99.90;;;;;;4890293;29;20093;-72
2022/12/08 23:39:41;;;;;;;18.10;13.50;;;5.20;99.90;;;;;;4889175;29;20745;-72
2022/12/08 23:42:07;;;;;;;16.67;12.93;;;5.20;99.90;;;;;;4890642;29;20095;-72
2022/12/08 23:44:32;;;;;;;16.60;12.60;;;5.10;99.90;;;;;;4885071;29;20032;-72
2022/12/08 23:46:58;;;;;;;20.48;13.55;;;5.10;99.90;;;;;;4877157;29;20079;-72
2022/12/08 23:49:24;;;;;;;18.63;14.18;;;5.10;99.90;;;;;;4887769;29;20181;-72
2022/12/08 23:51:50;;;;;;;19.02;13.85;;;5.10;99.90;;;;;;4886551;29;20037;-72
2022/12/08 23:54:16;;;;;;;17.27;12.90;;;5.10;99.90;;;;;;4888961;29;20045;-71
2022/12/08 23:56:42;;;;;;;18.52;13.50;;;5.20;99.90;;;;;;4881978;29;20057;-69
2022/12/08 23:59:08;;;;;;;17.98;13.38;;;5.20;99.90;;;;;;4888500;29;22790;-70
